createdAt,value
2019-04-25T00:02:36.650Z,55.89
2019-04-25T00:07:42.543Z,56.30
2019-04-25T00:12:51.516Z,56.41
2019-04-25T00:17:57.005Z,56.34
2019-04-25T00:23:15.469Z,56.71
2019-04-25T00:28:21.723Z,57.62
2019-04-25T00:33:26.926Z,58.28
2019-04-25T00:38:31.932Z,59.08
2019-04-25T00:43:36.943Z,59.92
2019-04-25T00:48:43.129Z,60.27
2019-04-25T00:53:48.361Z,60.08
2019-04-25T00:59:05.477Z,60.35
2019-04-25T01:04:12.321Z,60.33
2019-04-25T01:09:18.530Z,60.55
2019-04-25T01:14:23.661Z,60.81
2019-04-25T01:19:28.767Z,61.07
2019-04-25T01:24:34.028Z,61.25
2019-04-25T01:29:39.185Z,61.94
2019-04-25T01:34:54.897Z,62.58
2019-04-25T01:40:17.670Z,62.54
2019-04-25T01:45:25.849Z,62.65
2019-04-25T01:50:30.897Z,62.76
2019-04-25T01:55:35.900Z,63.10
2019-04-25T02:00:44.955Z,63.20
2019-04-25T02:05:51.684Z,63.40
2019-04-25T02:11:16.196Z,63.40
2019-04-25T02:16:21.497Z,63.73
2019-04-25T02:21:27.574Z,63.65
2019-04-25T02:26:34.008Z,63.56
2019-04-25T02:31:39.213Z,63.53
2019-04-25T02:36:46.885Z,63.61
2019-04-25T02:41:51.070Z,63.77
2019-04-25T02:47:29.042Z,63.98
2019-04-25T02:52:37.212Z,64.14
2019-04-25T02:57:44.716Z,64.05
2019-04-25T03:02:48.953Z,63.77
2019-04-25T03:07:54.579Z,63.62
2019-04-25T03:13:00.328Z,63.56
2019-04-25T03:18:11.900Z,62.86
2019-04-25T03:23:35.032Z,62.65
2019-04-25T03:28:39.391Z,62.97
2019-04-25T03:33:45.929Z,63.27
2019-04-25T03:38:51.709Z,63.02
2019-04-25T03:43:57.015Z,63.03
2019-04-25T03:49:02.595Z,63.19
2019-04-25T03:54:10.307Z,63.56
2019-04-25T03:59:16.088Z,63.67
2019-04-25T04:04:23.563Z,64.00
2019-04-25T04:09:28.252Z,64.29
2019-04-25T04:14:33.858Z,64.68
2019-04-25T04:19:47.648Z,64.92
2019-04-25T04:24:55.530Z,64.96
2019-04-25T04:30:00.583Z,65.06
2019-04-25T04:35:07.155Z,65.17
2019-04-25T04:40:12.264Z,65.17
2019-04-25T04:45:17.256Z,64.31
2019-04-25T04:50:28.560Z,63.89
2019-04-25T04:55:34.620Z,63.77
2019-04-25T05:00:39.702Z,63.31
2019-04-25T05:05:59.584Z,62.97
2019-04-25T05:11:04.883Z,62.67
2019-04-25T05:16:11.183Z,62.40
2019-04-25T05:21:20.360Z,62.45
2019-04-25T05:26:26.506Z,62.14
2019-04-25T05:31:38.060Z,61.91
2019-04-25T05:36:43.843Z,61.25
2019-04-25T05:42:04.611Z,61.07
2019-04-25T05:47:14.988Z,61.28
2019-04-25T05:52:21.949Z,60.29
2019-04-25T05:57:28.336Z,59.70
2019-04-25T06:02:34.095Z,59.29
2019-04-25T06:07:39.291Z,59.17
2019-04-25T06:13:03.515Z,58.90
2019-04-25T06:18:15.764Z,58.31
2019-04-25T06:23:44.341Z,58.11
2019-04-25T06:28:57.112Z,58.03
2019-04-25T06:33:59.055Z,57.49
2019-04-25T06:39:08.507Z,56.81
2019-04-25T06:44:30.721Z,55.85
2019-04-25T06:49:38.514Z,56.08
2019-04-25T06:54:48.188Z,55.42
2019-04-25T06:59:57.028Z,54.75
2019-04-25T07:05:05.448Z,55.08
2019-04-25T07:10:13.319Z,55.19
2019-04-25T07:15:18.924Z,55.06
2019-04-25T07:20:26.090Z,54.66
2019-04-25T07:25:35.474Z,54.94
2019-04-25T07:31:13.340Z,54.51
2019-04-25T07:36:21.165Z,53.56
2019-04-25T07:41:31.521Z,52.22
2019-04-25T07:46:39.973Z,51.90
2019-04-25T07:51:45.693Z,50.85
2019-04-25T07:56:51.647Z,49.87
2019-04-25T08:01:58.794Z,49.87
2019-04-25T08:07:14.145Z,49.46
2019-04-25T08:12:19.700Z,49.11
2019-04-25T08:17:54.081Z,45.22
2019-04-25T08:23:05.087Z,43.58
2019-04-25T08:28:10.226Z,43.54
2019-04-25T08:33:15.430Z,43.18
2019-04-25T08:38:27.661Z,41.66
2019-04-25T08:43:37.751Z,39.65
2019-04-25T08:49:07.116Z,39.32
2019-04-25T08:54:20.635Z,38.54
2019-04-25T09:00:04.245Z,38.40
2019-04-25T09:05:24.112Z,37.33
2019-04-25T09:10:29.789Z,39.08
2019-04-25T09:15:37.956Z,38.99
2019-04-25T09:20:46.375Z,37.15
2019-04-25T09:25:54.434Z,36.73
2019-04-25T09:30:59.946Z,34.92
2019-04-25T09:36:06.910Z,34.49
2019-04-25T09:41:13.869Z,35.30
2019-04-25T09:46:25.629Z,34.63
2019-04-25T09:51:44.605Z,32.51
2019-04-25T09:56:53.272Z,31.97
2019-04-25T10:02:00.184Z,31.71
2019-04-25T10:07:05.929Z,30.75
2019-04-25T10:12:11.034Z,30.46
2019-04-25T10:17:16.414Z,29.73
2019-04-25T10:22:21.555Z,29.91
2019-04-25T10:27:31.710Z,29.26
2019-04-25T10:33:07.481Z,29.02
2019-04-25T10:39:00.161Z,28.63
2019-04-25T10:44:00.212Z,27.36
2019-04-25T10:49:08.191Z,27.26
2019-04-25T10:54:14.556Z,25.85
2019-04-25T10:59:20.105Z,26.70
2019-04-25T11:04:33.691Z,25.42
2019-04-25T11:09:45.064Z,24.54
2019-04-25T11:14:58.210Z,24.83
2019-04-25T11:20:05.576Z,24.36
2019-04-25T11:25:24.052Z,23.42
2019-04-25T11:30:38.819Z,23.14
2019-04-25T11:35:50.253Z,22.52
2019-04-25T11:41:04.005Z,22.30
2019-04-25T11:46:11.732Z,22.82
2019-04-25T11:51:17.809Z,23.92
2019-04-25T11:56:24.271Z,23.07
2019-04-25T12:01:33.632Z,22.08
2019-04-25T12:06:46.979Z,22.52
2019-04-25T12:12:11.572Z,22.41
2019-04-25T12:17:19.408Z,21.30
2019-04-25T12:22:25.680Z,21.11
2019-04-25T12:27:30.978Z,22.00
2019-04-25T12:32:37.220Z,20.84
2019-04-25T12:37:44.201Z,21.48
2019-04-25T12:42:49.887Z,19.82
2019-04-25T12:47:59.444Z,20.57
2019-04-25T12:53:09.284Z,20.51
2019-04-25T12:58:16.252Z,20.98
2019-04-25T13:03:24.206Z,20.32
2019-04-25T13:08:30.063Z,20.38
2019-04-25T13:13:37.157Z,20.54
2019-04-25T13:18:43.359Z,20.42
2019-04-25T13:23:48.813Z,20.20
2019-04-25T13:29:05.376Z,20.93
2019-04-25T13:34:19.047Z,20.33
2019-04-25T13:39:25.096Z,21.41
2019-04-25T13:44:30.945Z,20.94
2019-04-25T13:49:36.773Z,21.19
2019-04-25T13:55:03.807Z,20.95
2019-04-25T14:00:18.069Z,21.04
2019-04-25T14:05:36.172Z,20.57
2019-04-25T14:10:41.482Z,20.90
2019-04-25T14:15:53.888Z,21.07
2019-04-25T14:21:09.823Z,21.48
2019-04-25T14:26:15.524Z,21.43
2019-04-25T14:31:33.773Z,22.08
2019-04-25T14:36:28.635Z,22.27
2019-04-25T14:41:33.873Z,22.27
2019-04-25T14:46:39.249Z,21.81
2019-04-25T14:51:44.526Z,22.20
2019-04-25T14:57:00.158Z,22.67
2019-04-25T15:02:06.563Z,22.83
2019-04-25T15:07:11.833Z,22.96
2019-04-25T15:12:18.008Z,23.16
2019-04-25T15:17:29.420Z,23.37
2019-04-25T15:22:36.151Z,23.42
2019-04-25T15:27:41.351Z,23.47
2019-04-25T15:32:48.213Z,23.30
2019-04-25T15:37:59.067Z,23.66
2019-04-25T15:43:12.208Z,23.92
2019-04-25T15:48:17.557Z,24.05
2019-04-25T15:53:22.667Z,24.37
2019-04-25T15:58:27.904Z,24.33
2019-04-25T16:03:33.225Z,24.08
2019-04-25T16:08:38.309Z,24.34
2019-04-25T16:13:43.404Z,24.55
2019-04-25T16:18:49.946Z,25.38
2019-04-25T16:23:55.314Z,25.35
2019-04-25T16:29:00.884Z,25.67
2019-04-25T16:34:06.409Z,26.10
2019-04-25T16:39:18.508Z,25.92
2019-04-25T16:44:23.950Z,26.20
2019-04-25T16:49:29.986Z,26.62
2019-04-25T16:54:35.916Z,26.96
2019-04-25T16:59:42.090Z,27.04
2019-04-25T17:04:48.637Z,27.28
2019-04-25T17:09:54.171Z,27.31
2019-04-25T17:15:57.276Z,27.52
2019-04-25T17:21:06.002Z,27.54
2019-04-25T17:26:13.162Z,27.47
2019-04-25T17:31:39.224Z,27.59
2019-04-25T17:37:05.013Z,27.67
2019-04-25T17:42:19.655Z,27.68
2019-04-25T17:48:31.864Z,27.75
2019-04-25T17:53:43.317Z,27.61
2019-04-25T17:58:50.424Z,27.97
2019-04-25T18:10:30.848Z,27.89
2019-04-25T18:21:27.019Z,28.20
2019-04-25T18:26:51.174Z,28.38
2019-04-25T18:31:59.003Z,28.66
2019-04-25T18:37:23.360Z,28.93
2019-04-25T18:42:48.272Z,29.11
2019-04-25T18:47:54.653Z,29.31
2019-04-25T18:53:10.594Z,29.33
2019-04-25T18:58:38.632Z,29.61
2019-04-25T19:04:07.994Z,29.85
2019-04-25T19:09:14.723Z,30.18
2019-04-25T19:14:20.362Z,30.29
2019-04-25T19:19:25.909Z,30.57
2019-04-25T19:24:32.070Z,30.73
2019-04-25T19:29:40.325Z,30.76
2019-04-25T19:34:52.034Z,30.89
2019-04-25T19:40:30.429Z,31.20
2019-04-25T19:45:42.532Z,31.34
2019-04-25T19:50:54.081Z,31.74
2019-04-25T19:56:23.812Z,31.78
2019-04-25T20:01:32.458Z,32.01
2019-04-25T20:06:56.157Z,32.58
2019-04-25T20:12:04.047Z,32.60
2019-04-25T20:17:11.775Z,32.93
2019-04-25T20:22:17.135Z,32.83
2019-04-25T20:27:27.615Z,33.16
2019-04-25T20:32:32.777Z,33.50
2019-04-25T20:37:40.370Z,35.59
2019-04-25T20:42:46.976Z,34.31
2019-04-25T20:47:56.928Z,34.47
2019-04-25T20:53:02.193Z,36.61
2019-04-25T20:58:08.550Z,36.40
2019-04-25T21:03:14.128Z,35.92
2019-04-25T21:08:19.868Z,36.07
2019-04-25T21:14:04.173Z,35.92
2019-04-25T21:19:15.618Z,35.86
2019-04-25T21:24:25.843Z,36.00
2019-04-25T21:29:33.596Z,35.99
2019-04-25T21:34:59.453Z,36.24
2019-04-25T21:40:15.404Z,36.05
2019-04-25T21:45:22.662Z,36.11
2019-04-25T21:50:28.492Z,36.39
2019-04-25T21:55:33.947Z,36.55
2019-04-25T22:00:58.593Z,36.48
2019-04-25T22:06:10.795Z,36.68
2019-04-25T22:11:16.316Z,36.68
2019-04-25T22:16:23.159Z,36.99
2019-04-25T22:21:37.850Z,36.95
2019-04-25T22:26:37.598Z,36.80
2019-04-25T22:32:01.493Z,37.42
2019-04-25T22:37:09.160Z,37.45
2019-04-25T22:42:14.628Z,37.47
2019-04-25T22:47:19.662Z,37.36
2019-04-25T22:52:24.714Z,37.70
2019-04-25T22:57:29.774Z,37.81
2019-04-25T23:02:44.191Z,38.12
2019-04-25T23:07:49.797Z,38.52
2019-04-25T23:12:56.024Z,39.55
2019-04-25T23:18:01.218Z,39.55
2019-04-25T23:23:07.692Z,39.94
2019-04-25T23:28:19.140Z,40.33
2019-04-25T23:33:24.472Z,40.78
2019-04-25T23:38:31.970Z,41.10
2019-04-25T23:43:37.822Z,41.56
2019-04-25T23:48:42.960Z,42.13
2019-04-25T23:53:48.048Z,42.64
2019-04-25T23:58:53.088Z,43.00
